Fine Lakes, Minnesota
Current Conditions -  °F | °C
As of 8:16 AM on Sunday 25 Jan 2015 (Local Time) from KCOQ Reporting Station
Overcast Overcast  
Wind Chill:   Ceiling: 1200
Heat Index: 18°   Visibility: 10mi
Dew Point: 12°   Wind: 7mph
Humidity: 79%   Direction: 40°NE
Pressure: 29.98"   Gusts: NA
Location:  46.8211°N, 92.6871°W
Report Text: KCOQ 251416Z AUTO 04006KT 10SM BKN012 OVC018 M08/M11 A2998 RMK AO2
Loading
Personal Weather Stations






























Interactive Weather Map New forecast layout! Learn more

10-Day Weather Forecast

Advertisements
Track Severe Weather on mobile